Time;durP1;ratioP1;P1;durP2;ratioP2;P2;SDS_P1;SDS_P2;PMS_P1;PMS_P2;Temp;Humidity;BMP_temperature;BMP_pressure;BME280_temperature;BME280_humidity;BME280_pressure;Samples;Min_cycle;Max_cycle;Signal;HPM_P1;HPM_P2
2021/06/05 00:01:52;;;;;;;5.20;1.45;;;;;;;16.94;63.52;100789.27;126042;1092;25954;-61
2021/06/05 00:04:23;;;;;;;5.73;1.63;;;;;;;16.94;63.55;100787.22;125835;1092;22791;-58
2021/06/05 00:06:53;;;;;;;5.35;1.50;;;;;;;16.94;63.33;100784.41;125850;1093;22757;-58
2021/06/05 00:09:24;;;;;;;7.55;1.58;;;;;;;16.92;63.84;100792.58;125802;1093;24476;-58
2021/06/05 00:11:54;;;;;;;4.70;1.20;;;;;;;16.91;63.82;100776.95;125895;1093;22819;-59
2021/06/05 00:14:24;;;;;;;4.67;1.47;;;;;;;16.93;63.90;100779.25;125833;1093;24458;-59
2021/06/05 00:16:54;;;;;;;5.63;1.60;;;;;;;16.91;63.79;100757.20;125787;1093;27623;-58
2021/06/05 00:19:26;;;;;;;7.85;1.88;;;;;;;16.90;64.40;100760.55;126037;1092;27400;-56
2021/06/05 00:21:56;;;;;;;5.87;1.57;;;;;;;16.87;64.23;100764.38;126117;1092;24450;-57
2021/06/05 00:24:26;;;;;;;6.37;1.70;;;;;;;16.84;64.13;100754.88;126120;1093;27648;-59
2021/06/05 00:26:56;;;;;;;6.73;1.60;;;;;;;16.81;63.87;100755.14;125981;1093;22804;-59
2021/06/05 00:29:26;;;;;;;5.80;1.73;;;;;;;16.76;64.67;100751.02;125908;1093;22765;-58
2021/06/05 00:31:58;;;;;;;6.97;1.80;;;;;;;16.74;64.56;100759.22;125919;1093;22845;-58
2021/06/05 00:34:28;;;;;;;8.00;1.70;;;;;;;16.72;64.94;100756.14;126100;1093;22782;-55
2021/06/05 00:36:58;;;;;;;6.63;2.20;;;;;;;16.70;64.33;100755.88;126079;1093;22750;-60
2021/06/05 00:39:28;;;;;;;7.40;1.80;;;;;;;16.70;65.12;100752.28;126114;1093;22801;-59
2021/06/05 00:41:59;;;;;;;7.98;1.60;;;;;;;16.68;65.04;100749.98;125994;1090;24422;-58
2021/06/05 00:44:28;;;;;;;6.60;2.10;;;;;;;16.66;65.45;100755.36;126041;1092;22754;-57
2021/06/05 00:46:59;;;;;;;10.40;2.00;;;;;;;16.64;65.58;100762.78;126053;1093;22760;-60
2021/06/05 00:49:29;;;;;;;6.10;1.80;;;;;;;16.60;65.47;100757.39;126047;1093;22895;-59
2021/06/05 00:52:01;;;;;;;7.68;2.08;;;;;;;16.57;65.76;100764.06;126017;1092;22777;-58
2021/06/05 00:54:31;;;;;;;10.15;2.25;;;;;;;16.53;65.33;100762.77;126070;1093;22912;-60
2021/06/05 00:57:05;;;;;;;8.60;2.45;;;;;;;16.51;65.80;100760.44;126057;1093;27632;-57
2021/06/05 00:59:36;;;;;;;6.10;1.90;;;;;;;16.49;65.47;100760.17;126205;1093;23608;-56
2021/06/05 01:02:07;;;;;;;8.20;1.60;;;;;;;16.50;65.59;100756.09;126055;1093;22741;-58
2021/06/05 01:04:38;;;;;;;6.15;1.70;;;;;;;16.51;65.69;100751.98;126197;1093;22947;-58
2021/06/05 01:07:16;;;;;;;5.80;1.70;;;;;;;16.50;65.61;100752.49;126101;1092;23449;-57
2021/06/05 01:09:57;;;;;;;6.75;1.70;;;;;;;16.48;65.57;100747.34;126000;1092;25842;-59
2021/06/05 01:12:34;;;;;;;5.80;1.75;;;;;;;16.48;65.09;100738.89;126168;1093;22868;-59
2021/06/05 01:15:13;;;;;;;5.75;1.85;;;;;;;16.49;65.15;100743.26;126094;1093;22772;-57
2021/06/05 01:17:48;;;;;;;8.10;1.90;;;;;;;16.50;65.06;100746.86;126300;1093;22911;-58
2021/06/05 01:20:29;;;;;;;5.10;1.40;;;;;;;16.51;65.26;100729.43;126131;1093;22764;-57
2021/06/05 01:23:15;;;;;;;6.65;1.85;;;;;;;16.52;65.31;100733.80;126083;1093;22808;-58
2021/06/05 01:26:03;;;;;;;8.38;1.53;;;;;;;16.53;64.95;100726.13;126022;1093;26340;-58
2021/06/05 01:28:37;;;;;;;3.80;1.40;;;;;;;16.53;64.81;100726.88;126013;1093;22815;-58
2021/06/05 01:31:15;;;;;;;6.27;1.70;;;;;;;16.54;64.68;100710.73;126100;1093;22788;-58
2021/06/05 01:33:47;;;;;;;6.40;1.80;;;;;;;16.57;64.77;100713.33;126055;1092;24459;-58
2021/06/05 01:36:19;;;;;;;8.05;1.75;;;;;;;16.58;64.89;100711.25;126075;1092;22807;-58
2021/06/05 01:38:52;;;;;;;7.80;2.00;;;;;;;16.58;65.24;100703.58;126077;1093;22776;-59
2021/06/05 01:41:25;;;;;;;7.80;1.70;;;;;;;16.58;65.26;100708.44;126063;1093;22751;-59
2021/06/05 01:43:56;;;;;;;7.75;1.50;;;;;;;16.59;64.93;100698.72;126146;1093;22816;-59
2021/06/05 01:46:31;;;;;;;5.55;1.60;;;;;;;16.58;64.85;100697.16;126149;1093;22777;-57
2021/06/05 01:49:01;;;;;;;6.40;1.45;;;;;;;16.57;65.10;100690.00;126122;1093;25865;-59
2021/06/05 01:51:32;;;;;;;6.00;1.60;;;;;;;16.54;65.07;100691.78;126128;1092;22778;-59
2021/06/05 01:54:09;;;;;;;6.40;1.70;;;;;;;16.56;64.99;100692.05;126085;1093;24461;-58
2021/06/05 01:56:45;;;;;;;5.90;2.03;;;;;;;16.58;64.99;100685.89;126103;1093;22783;-58
2021/06/05 01:59:18;;;;;;;8.13;2.00;;;;;;;16.57;65.45;100678.73;126060;1091;25864;-61
2021/06/05 02:01:48;;;;;;;10.45;2.00;;;;;;;16.53;65.92;100675.39;125987;1090;25682;-55
2021/06/05 02:04:18;;;;;;;5.85;1.95;;;;;;;16.49;66.23;100678.44;126155;1093;24486;-56
2021/06/05 02:06:48;;;;;;;;;;;;;;;16.45;66.34;100672.25;126036;1093;22787;-58
2021/06/05 02:09:25;;;;;;;11.20;2.23;;;;;;;16.42;66.67;100676.11;125995;1091;21457;-58
2021/06/05 02:12:00;;;;;;;8.00;1.95;;;;;;;16.34;66.46;100677.88;126120;1093;22784;-58
2021/06/05 02:14:34;;;;;;;5.67;1.80;;;;;;;16.30;66.64;100677.36;126122;1093;26795;-59
2021/06/05 02:17:10;;;;;;;6.55;1.70;;;;;;;16.29;66.46;100675.03;126043;1093;24840;-58
2021/06/05 02:19:43;;;;;;;4.60;1.70;;;;;;;16.28;66.50;100681.95;126050;1093;22779;-58
2021/06/05 02:22:17;;;;;;;5.80;1.55;;;;;;;16.27;66.68;100684.00;126083;1093;22794;-58
2021/06/05 02:24:49;;;;;;;6.45;1.75;;;;;;;16.28;66.50;100679.14;126153;1091;22769;-58
2021/06/05 02:27:23;;;;;;;7.15;1.60;;;;;;;16.30;66.56;100665.31;126103;1093;22857;-58
2021/06/05 02:29:55;;;;;;;8.05;1.95;;;;;;;16.29;66.85;100672.99;126282;1093;26328;-58
2021/06/05 02:32:30;;;;;;;5.40;1.90;;;;;;;16.26;66.75;100670.43;126264;1093;25871;-59
2021/06/05 02:35:01;;;;;;;11.55;2.00;;;;;;;16.26;67.04;100671.20;126102;1093;22794;-59
2021/06/05 02:37:36;;;;;;;10.05;2.15;;;;;;;16.26;67.07;100668.39;126073;1092;27532;-59
2021/06/05 02:40:11;;;;;;;6.20;2.00;;;;;;;16.26;67.20;100659.94;126013;1091;26279;-58
2021/06/05 02:42:42;;;;;;;8.30;2.10;;;;;;;16.25;67.36;100651.97;126079;1092;22760;-59
2021/06/05 02:45:24;;;;;;;9.67;2.33;;;;;;;16.23;67.22;100648.89;126070;1093;22764;-58
2021/06/05 02:47:56;;;;;;;6.40;1.65;;;;;;;16.20;67.41;100648.63;126010;1093;26276;-58
2021/06/05 02:50:32;;;;;;;6.00;1.80;;;;;;;16.20;67.30;100643.00;126145;1093;22765;-59
2021/06/05 02:53:02;;;;;;;5.95;1.75;;;;;;;16.21;67.02;100640.96;126018;1093;22791;-58
2021/06/05 02:55:33;;;;;;;7.35;1.78;;;;;;;16.20;67.42;100643.00;126015;1091;24888;-60
2021/06/05 02:58:02;;;;;;;;;;;;;;;16.19;67.21;100652.75;126047;1093;22784;-58
2021/06/05 03:00:36;;;;;;;5.70;1.90;;;;;;;16.16;67.33;100650.93;126090;1093;23988;-58
2021/06/05 03:03:08;;;;;;;8.03;1.83;;;;;;;16.17;67.58;100654.52;126100;1093;27590;-57
2021/06/05 03:05:39;;;;;;;7.43;2.27;;;;;;;16.17;67.60;100651.70;126142;1093;23052;-59
2021/06/05 03:08:13;;;;;;;6.67;2.07;;;;;;;16.17;68.05;100651.70;125933;1092;22811;-59
2021/06/05 03:10:43;;;;;;;7.35;1.80;;;;;;;16.18;67.88;100659.64;126092;1092;22757;-58
2021/06/05 03:13:14;;;;;;;8.48;2.15;;;;;;;16.19;67.56;100664.02;126080;1093;22838;-58
2021/06/05 03:15:47;;;;;;;6.80;1.90;;;;;;;16.19;68.06;100666.05;126122;1092;22788;-55
2021/06/05 03:18:19;;;;;;;9.63;2.20;;;;;;;16.21;67.92;100663.50;125935;1092;22783;-59
2021/06/05 03:20:50;;;;;;;9.50;2.00;;;;;;;16.21;67.83;100666.31;126105;1093;22762;-59
2021/06/05 03:23:23;;;;;;;10.55;2.45;;;;;;;16.24;68.00;100662.50;125961;1093;22784;-59
2021/06/05 03:25:53;;;;;;;8.33;2.20;;;;;;;16.24;67.99;100672.98;125950;1091;22827;-58
2021/06/05 03:28:26;;;;;;;5.77;2.03;;;;;;;16.26;68.36;100659.94;125930;1093;27341;-58
2021/06/05 03:30:56;;;;;;;7.23;1.83;;;;;;;16.28;68.39;100674.28;126039;1093;24502;-59
2021/06/05 03:33:27;;;;;;;6.55;1.85;;;;;;;16.29;68.66;100675.81;126077;1092;27580;-58
2021/06/05 03:35:57;;;;;;;6.60;1.90;;;;;;;16.29;68.51;100691.94;126031;1093;22767;-57
2021/06/05 03:38:31;;;;;;;7.10;2.63;;;;;;;16.26;68.43;100684.52;126091;1090;26274;-57
2021/06/05 03:41:02;;;;;;;8.45;2.40;;;;;;;16.23;68.47;100683.48;125963;1091;22812;-58
2021/06/05 03:43:32;;;;;;;7.27;2.73;;;;;;;16.23;69.24;100682.70;125964;1093;27302;-57
2021/06/05 03:46:02;;;;;;;9.35;2.30;;;;;;;16.18;68.92;100682.17;125934;1093;22755;-58
2021/06/05 03:48:31;;;;;;;7.60;2.60;;;;;;;16.19;68.76;100677.32;125953;1093;27738;-59
2021/06/05 03:51:01;;;;;;;7.20;2.58;;;;;;;16.18;68.74;100673.73;126000;1093;22911;-58
2021/06/05 03:53:31;;;;;;;8.70;3.00;;;;;;;16.20;69.06;100670.42;125972;1092;22745;-57
2021/06/05 03:56:02;;;;;;;10.90;3.40;;;;;;;16.22;69.47;100672.72;126023;1093;22787;-59
2021/06/05 03:58:38;;;;;;;10.25;2.90;;;;;;;16.18;70.21;100682.17;126004;1091;24454;-60
2021/06/05 04:01:11;;;;;;;12.33;3.50;;;;;;;16.15;70.07;100679.61;126036;1090;22899;-56
2021/06/05 04:03:42;;;;;;;8.95;3.50;;;;;;;16.15;70.25;100666.30;126182;1093;26356;-56
2021/06/05 04:06:13;;;;;;;9.90;2.90;;;;;;;16.16;70.35;100667.83;126045;1091;26593;-59
2021/06/05 04:08:46;;;;;;;9.50;3.30;;;;;;;16.15;70.23;100654.27;126097;1093;24451;-59
2021/06/05 04:11:18;;;;;;;9.83;3.53;;;;;;;16.16;70.02;100662.20;126039;1093;22758;-56
2021/06/05 04:13:49;;;;;;;10.80;3.50;;;;;;;16.21;70.79;100660.68;126148;1093;22841;-59
2021/06/05 04:16:23;;;;;;;8.10;2.80;;;;;;;16.26;70.39;100668.39;126529;1093;23773;-60
2021/06/05 04:18:55;;;;;;;9.63;2.83;;;;;;;16.35;70.75;100656.09;126620;1093;22769;-61
2021/06/05 04:21:27;;;;;;;10.10;2.80;;;;;;;16.41;70.49;100654.83;126830;1092;22800;-58
2021/06/05 04:23:57;;;;;;;8.25;2.75;;;;;;;16.50;70.60;100657.45;126836;1092;22817;-60
2021/06/05 04:26:27;;;;;;;8.13;3.00;;;;;;;16.58;70.93;100652.84;126779;1090;22810;-59
2021/06/05 04:28:57;;;;;;;11.23;3.20;;;;;;;16.68;70.65;100644.89;126724;1090;22840;-59
2021/06/05 04:31:28;;;;;;;8.85;3.15;;;;;;;16.75;70.19;100644.40;126796;1093;22770;-61
2021/06/05 04:33:58;;;;;;;12.30;3.40;;;;;;;16.80;70.29;100644.39;126919;1093;22732;-61
2021/06/05 04:36:27;;;;;;;;;;;;;;;16.83;70.11;100643.38;126951;1091;22770;-60
2021/06/05 04:38:57;;;;;;;8.80;2.80;;;;;;;16.81;69.94;100643.13;126774;1093;21460;-60
2021/06/05 04:41:27;;;;;;;;;;;;;;;16.82;69.97;100643.90;126751;1092;25723;-61
2021/06/05 04:43:57;;;;;;;7.17;2.60;;;;;;;16.83;69.82;100643.38;126713;1093;23324;-59
2021/06/05 04:46:27;;;;;;;7.35;3.08;;;;;;;16.84;70.23;100642.08;127032;1093;22820;-61
2021/06/05 04:48:58;;;;;;;10.75;3.20;;;;;;;16.84;70.17;100646.97;126810;1093;22781;-58
2021/06/05 04:51:30;;;;;;;10.93;3.23;;;;;;;16.87;69.85;100652.34;126810;1092;24411;-60
2021/06/05 04:54:00;;;;;;;9.20;3.25;;;;;;;16.90;69.99;100650.56;126864;1093;22771;-60
2021/06/05 04:56:38;;;;;;;8.90;2.95;;;;;;;16.92;69.79;100650.81;126646;1090;22768;-61
2021/06/05 04:59:10;;;;;;;10.25;2.90;;;;;;;16.92;69.54;100662.09;127007;1093;27803;-60
2021/06/05 05:01:40;;;;;;;10.17;3.43;;;;;;;16.96;70.18;100659.78;126976;1092;22848;-59
2021/06/05 05:04:10;;;;;;;11.05;3.10;;;;;;;16.98;69.98;100658.00;126758;1092;22795;-61
2021/06/05 05:06:41;;;;;;;7.70;2.37;;;;;;;16.99;69.93;100653.88;126746;1092;23367;-62
2021/06/05 05:09:13;;;;;;;8.47;3.30;;;;;;;17.06;69.75;100651.82;126808;1093;24282;-60
2021/06/05 05:11:44;;;;;;;8.10;3.00;;;;;;;17.12;69.84;100653.36;126933;1092;27300;-60
2021/06/05 05:14:15;;;;;;;9.20;3.17;;;;;;;17.19;70.15;100650.03;126985;1093;22772;-60
2021/06/05 05:16:45;;;;;;;11.00;3.20;;;;;;;17.25;69.79;100647.97;126799;1093;25778;-59
2021/06/05 05:19:16;;;;;;;7.60;2.93;;;;;;;17.36;69.95;100655.64;126787;1093;22793;-58
2021/06/05 05:21:46;;;;;;;8.40;3.33;;;;;;;17.45;69.87;100644.06;126897;1093;22779;-61
2021/06/05 05:24:19;;;;;;;11.65;3.30;;;;;;;17.53;69.90;100640.22;126757;1093;22714;-59
2021/06/05 05:26:50;;;;;;;12.00;3.95;;;;;;;17.60;69.97;100638.92;126846;1093;24582;-60
2021/06/05 05:29:20;;;;;;;16.35;5.35;;;;;;;17.65;69.48;100643.77;126774;1093;23477;-60
2021/06/05 05:31:51;;;;;;;13.90;4.70;;;;;;;17.74;69.48;100651.95;126719;1093;22777;-59
2021/06/05 05:34:22;;;;;;;;;;;;;;;17.85;69.94;100648.33;126600;1093;26561;-61
2021/06/05 05:36:52;;;;;;;15.25;4.50;;;;;;;17.95;69.50;100661.64;126918;1092;21463;-61
2021/06/05 05:39:21;;;;;;;;;;;;;;;18.09;69.56;100660.54;126789;1092;22761;-61
2021/06/05 05:41:53;;;;;;;11.57;3.33;;;;;;;18.18;69.42;100667.95;126647;1093;21470;-57
2021/06/05 05:44:23;;;;;;;9.35;3.55;;;;;;;18.30;68.90;100672.25;126974;1093;25834;-61
2021/06/05 05:46:53;;;;;;;10.05;3.60;;;;;;;18.39;69.32;100664.22;126759;1093;22797;-58
2021/06/05 05:49:25;;;;;;;9.80;3.35;;;;;;;18.51;68.82;100659.30;126851;1092;22858;-59
2021/06/05 05:51:55;;;;;;;11.35;3.55;;;;;;;18.65;68.83;100660.23;126742;1093;22770;-62
2021/06/05 05:54:24;;;;;;;;;;;;;;;18.80;69.03;100652.92;126682;1093;22739;-60
2021/06/05 05:56:55;;;;;;;9.80;3.10;;;;;;;18.91;68.47;100669.79;126733;1092;21603;-61
2021/06/05 05:59:26;;;;;;;12.00;3.55;;;;;;;18.99;68.64;100670.00;126602;1092;22800;-59
2021/06/05 06:01:56;;;;;;;10.50;3.70;;;;;;;19.06;68.44;100661.70;126698;1093;22747;-59
2021/06/05 06:04:26;;;;;;;10.33;2.93;;;;;;;19.16;68.29;100662.89;126887;1093;22736;-60
2021/06/05 06:06:55;;;;;;;;;;;;;;;19.28;68.31;100660.73;126595;1088;23254;-59
2021/06/05 06:09:25;;;;;;;9.13;3.60;;;;;;;19.34;67.64;100656.59;126631;1089;21467;-60
2021/06/05 06:11:54;;;;;;;;;;;;;;;19.41;67.75;100660.13;126587;1093;27027;-60
2021/06/05 06:14:24;;;;;;;12.05;4.05;;;;;;;19.46;68.18;100662.89;126940;1093;21569;-59
2021/06/05 06:16:54;;;;;;;9.50;3.23;;;;;;;19.57;67.52;100662.78;126680;1093;22704;-61
2021/06/05 06:19:24;;;;;;;8.33;3.37;;;;;;;19.66;67.54;100662.41;126684;1093;22770;-61
2021/06/05 06:21:53;;;;;;;;;;;;;;;19.79;67.19;100656.08;126806;1093;25736;-61
2021/06/05 06:24:24;;;;;;;10.60;3.65;;;;;;;19.89;67.18;100660.07;126830;1093;21519;-60
2021/06/05 06:26:54;;;;;;;9.77;3.87;;;;;;;19.89;66.46;100658.02;126587;1089;25310;-60
2021/06/05 06:29:29;;;;;;;9.17;3.17;;;;;;;19.89;66.21;100660.84;126646;1092;24290;-61
2021/06/05 06:32:00;;;;;;;9.00;3.43;;;;;;;19.84;66.43;100655.26;126509;1093;22777;-59
2021/06/05 06:34:30;;;;;;;7.75;2.80;;;;;;;19.82;66.45;100661.44;126726;1092;27137;-61
2021/06/05 06:37:01;;;;;;;;;;;;;;;19.80;66.31;100666.13;126627;1092;25276;-59
2021/06/05 06:39:36;;;;;;;8.50;3.37;;;;;;;19.79;66.92;100665.35;126822;1091;21517;-60
2021/06/05 06:42:07;;;;;;;8.38;3.58;;;;;;;19.84;66.60;100667.34;126462;1092;22798;-61
2021/06/05 06:44:37;;;;;;;10.20;2.83;;;;;;;19.84;66.62;100672.26;126875;1093;22794;-62
2021/06/05 06:47:10;;;;;;;9.33;3.20;;;;;;;19.87;66.45;100671.95;126584;1091;27131;-61
2021/06/05 06:49:40;;;;;;;9.03;2.90;;;;;;;19.91;66.45;100663.91;126675;1092;22762;-62
2021/06/05 06:52:10;;;;;;;14.03;3.53;;;;;;;19.95;66.70;100667.20;126628;1093;25864;-60
2021/06/05 06:54:40;;;;;;;8.90;2.98;;;;;;;20.01;66.31;100661.46;126719;1092;22767;-62
2021/06/05 06:57:13;;;;;;;9.25;2.85;;;;;;;20.05;66.31;100664.76;126665;1093;26273;-62
2021/06/05 06:59:44;;;;;;;6.45;2.48;;;;;;;20.12;66.46;100667.00;126726;1093;22809;-60
2021/06/05 07:02:14;;;;;;;8.80;3.27;;;;;;;20.13;66.55;100666.45;126539;1092;26255;-61
2021/06/05 07:04:44;;;;;;;9.28;3.00;;;;;;;20.25;66.07;100669.18;126591;1092;22760;-60
2021/06/05 07:07:14;;;;;;;7.63;3.13;;;;;;;20.27;65.44;100672.24;126564;1092;26803;-61
2021/06/05 07:09:45;;;;;;;10.80;3.25;;;;;;;20.29;65.55;100669.64;126500;1090;22765;-61
2021/06/05 07:12:16;;;;;;;9.70;3.43;;;;;;;20.35;65.88;100664.66;128332;1092;22725;-62
2021/06/05 07:14:47;;;;;;;8.70;2.70;;;;;;;20.44;65.59;100667.11;128248;1093;22743;-62
2021/06/05 07:17:19;;;;;;;9.40;2.78;;;;;;;20.51;65.65;100664.41;126542;1093;22760;-60
2021/06/05 07:19:49;;;;;;;13.10;4.63;;;;;;;20.55;64.90;100664.09;126556;1092;24929;-61
2021/06/05 07:22:18;;;;;;;;;;;;;;;20.56;64.67;100662.80;126382;1089;24608;-61
2021/06/05 07:24:48;;;;;;;14.30;3.90;;;;;;;20.61;64.82;100664.80;126252;1090;21460;-60
2021/06/05 07:27:19;;;;;;;11.40;4.80;;;;;;;20.65;64.80;100659.58;126295;1091;22789;-60
2021/06/05 07:29:49;;;;;;;16.57;5.07;;;;;;;20.70;64.99;100658.71;126670;1093;28261;-59
2021/06/05 07:32:19;;;;;;;9.33;3.30;;;;;;;20.79;64.22;100664.77;126407;1093;22778;-62
2021/06/05 07:34:50;;;;;;;7.78;2.93;;;;;;;20.90;63.92;100655.28;126434;1092;22919;-60
2021/06/05 07:37:20;;;;;;;7.80;2.93;;;;;;;20.99;63.70;100657.72;126428;1093;22815;-64
2021/06/05 07:39:50;;;;;;;8.10;2.90;;;;;;;21.11;63.84;100658.31;126486;1093;27122;-63
2021/06/05 07:42:20;;;;;;;7.73;2.43;;;;;;;21.18;63.48;100652.78;126461;1091;25720;-64
2021/06/05 07:44:50;;;;;;;8.73;3.20;;;;;;;21.27;63.08;100646.66;126467;1093;22754;-62
2021/06/05 07:47:21;;;;;;;10.25;2.80;;;;;;;21.34;62.82;100642.42;126480;1093;24127;-64
2021/06/05 07:49:52;;;;;;;8.18;2.43;;;;;;;21.41;62.72;100636.88;126245;1093;26279;-61
2021/06/05 07:52:24;;;;;;;9.15;3.13;;;;;;;21.52;62.75;100642.32;126633;1093;22986;-63
2021/06/05 07:54:55;;;;;;;9.55;3.15;;;;;;;21.61;62.35;100641.90;126207;1093;22767;-63
2021/06/05 07:57:26;;;;;;;13.43;3.33;;;;;;;21.71;62.49;100642.98;126351;1093;24070;-62
2021/06/05 07:59:56;;;;;;;10.58;3.38;;;;;;;21.70;61.57;100649.22;126412;1093;22790;-64
2021/06/05 08:02:26;;;;;;;9.33;3.25;;;;;;;21.63;61.40;100636.43;126276;1093;22764;-64
2021/06/05 08:04:56;;;;;;;8.98;2.93;;;;;;;21.65;61.86;100633.03;126114;1093;22763;-63
2021/06/05 08:07:25;;;;;;;11.40;3.75;;;;;;;21.64;61.56;100640.78;126018;1092;25783;-65
2021/06/05 08:09:56;;;;;;;8.00;3.23;;;;;;;21.63;61.39;100632.81;126048;1093;23509;-70
2021/06/05 08:12:27;;;;;;;10.73;3.60;;;;;;;21.66;61.53;100631.73;126239;1092;22759;-63
2021/06/05 08:14:58;;;;;;;12.53;3.30;;;;;;;21.70;61.49;100640.70;126201;1092;22770;-66
2021/06/05 08:17:29;;;;;;;15.40;3.95;;;;;;;21.74;61.46;100639.06;126406;1093;22755;-65
2021/06/05 08:20:00;;;;;;;12.57;4.17;;;;;;;21.79;61.36;100634.55;126325;1093;22715;-63
2021/06/05 08:22:30;;;;;;;13.38;3.63;;;;;;;21.92;60.85;100630.96;126172;1093;22793;-63
2021/06/05 08:24:59;;;;;;;;;;;;;;;22.02;60.67;100635.65;125923;1090;22804;-63
2021/06/05 08:27:29;;;;;;;10.87;3.07;;;;;;;22.04;60.33;100626.56;126067;1092;21458;-63
2021/06/05 08:30:00;;;;;;;11.00;3.95;;;;;;;22.03;60.25;100631.50;126045;1092;22754;-63
2021/06/05 08:32:30;;;;;;;10.17;3.23;;;;;;;22.03;60.16;100630.73;126116;1093;22845;-63
2021/06/05 08:35:00;;;;;;;8.08;2.98;;;;;;;22.03;59.97;100625.82;126147;1092;22880;-63
2021/06/05 08:37:30;;;;;;;9.80;3.10;;;;;;;22.11;59.86;100623.83;126044;1090;22844;-63
2021/06/05 08:40:00;;;;;;;7.93;2.83;;;;;;;22.15;59.16;100627.09;126319;1093;24319;-63
2021/06/05 08:42:38;;;;;;;8.60;2.60;;;;;;;22.21;58.59;100621.28;126078;1093;24407;-62
2021/06/05 08:45:11;;;;;;;10.45;3.40;;;;;;;22.19;59.02;100618.22;126251;1093;22777;-63
2021/06/05 08:47:42;;;;;;;11.00;2.80;;;;;;;22.28;58.94;100623.45;126363;1092;22766;-64
2021/06/05 08:50:16;;;;;;;6.90;2.40;;;;;;;22.33;58.12;100620.47;126202;1093;22767;-63
2021/06/05 08:52:53;;;;;;;7.55;2.40;;;;;;;22.38;58.07;100613.14;126076;1091;23483;-62
2021/06/05 08:55:30;;;;;;;9.50;3.15;;;;;;;22.42;58.13;100617.17;126023;1093;25849;-63
2021/06/05 08:58:06;;;;;;;8.60;3.00;;;;;;;22.41;58.12;100609.94;126312;1092;26242;-63
2021/06/05 09:00:43;;;;;;;9.08;3.10;;;;;;;22.47;58.27;100610.56;126215;1093;22732;-63
2021/06/05 09:03:16;;;;;;;12.45;3.28;;;;;;;22.61;57.90;100602.78;126105;1092;22770;-64
2021/06/05 09:05:53;;;;;;;7.87;2.83;;;;;;;22.66;57.68;100604.72;126093;1093;24450;-63
2021/06/05 09:08:26;;;;;;;8.90;2.85;;;;;;;22.74;57.66;100599.11;126210;1093;22889;-65
2021/06/05 09:10:57;;;;;;;13.23;3.58;;;;;;;22.80;57.44;100603.32;126039;1092;22761;-61
2021/06/05 09:13:28;;;;;;;7.60;2.50;;;;;;;22.86;57.41;100606.82;126144;1093;22800;-63
2021/06/05 09:16:23;;;;;;;8.88;2.75;;;;;;;22.95;56.88;100602.69;126246;1093;22764;-63
2021/06/05 09:19:01;;;;;;;8.33;2.35;;;;;;;23.01;57.14;100595.53;126473;1092;22745;-67
2021/06/05 09:21:34;;;;;;;7.18;2.68;;;;;;;23.00;56.63;100596.09;126251;1090;22766;-62
2021/06/05 09:24:25;;;;;;;11.53;2.73;;;;;;;22.95;57.02;100594.92;126177;1091;22761;-63
2021/06/05 09:27:11;;;;;;;7.93;2.48;;;;;;;23.11;57.00;100590.86;125973;1092;22787;-63
2021/06/05 09:29:52;;;;;;;6.65;2.50;;;;;;;23.31;57.38;100590.08;126098;1090;24158;-63
2021/06/05 09:32:24;;;;;;;8.18;2.93;;;;;;;23.45;56.97;100596.45;126129;1090;22796;-62
2021/06/05 09:34:57;;;;;;;8.38;3.05;;;;;;;23.44;56.45;100586.39;126090;1092;22790;-62
2021/06/05 09:37:35;;;;;;;7.68;3.10;;;;;;;23.50;56.42;100601.23;126320;1090;22758;-63
2021/06/05 09:40:24;;;;;;;7.95;3.00;;;;;;;23.50;55.98;100583.38;126118;1093;22805;-63
2021/06/05 09:42:58;;;;;;;6.93;2.50;;;;;;;23.44;55.52;100586.39;125970;1090;22763;-63
2021/06/05 09:45:36;;;;;;;8.53;2.50;;;;;;;23.41;55.39;100587.50;126129;1089;22775;-63
2021/06/05 09:48:21;;;;;;;6.28;2.33;;;;;;;23.41;54.81;100598.89;126219;1090;22768;-66
2021/06/05 09:50:53;;;;;;;8.23;2.58;;;;;;;23.33;54.58;100589.53;126270;1090;23556;-65
2021/06/05 09:53:31;;;;;;;6.93;2.48;;;;;;;23.31;54.23;100589.30;126166;1093;26252;-66
2021/06/05 09:56:04;;;;;;;7.55;2.20;;;;;;;23.34;53.97;100585.35;126213;1091;22764;-67
2021/06/05 09:58:40;;;;;;;6.25;2.25;;;;;;;23.37;53.25;100592.02;126110;1089;26245;-66
2021/06/05 10:01:24;;;;;;;7.55;1.93;;;;;;;23.41;53.91;100587.50;126392;1089;27204;-65
2021/06/05 10:04:10;;;;;;;6.35;2.10;;;;;;;23.47;52.66;100588.10;126297;1089;24486;-66
2021/06/05 10:06:45;;;;;;;4.40;1.60;;;;;;;23.48;52.11;100594.56;126127;1089;22778;-67
2021/06/05 10:09:32;;;;;;;4.30;1.70;;;;;;;23.51;51.61;100599.13;126247;1090;22760;-66
2021/06/05 10:12:07;;;;;;;6.10;2.05;;;;;;;23.55;51.47;100594.60;126152;1089;22793;-65
2021/06/05 10:14:52;;;;;;;235.35;186.38;;;;;;;23.65;51.84;100594.86;126724;1090;24607;-67
2021/06/05 10:17:34;;;;;;;38.50;22.23;;;;;;;23.69;50.88;100593.16;126306;1090;22732;-66
2021/06/05 10:20:16;;;;;;;14.50;4.80;;;;;;;23.71;50.80;100586.91;126301;1093;23040;-67
2021/06/05 10:22:49;;;;;;;11.13;2.48;;;;;;;23.71;49.94;100584.80;126187;1089;24458;-67
2021/06/05 10:25:29;;;;;;;6.15;2.10;;;;;;;23.66;50.05;100590.67;126246;1090;27160;-65
2021/06/05 10:28:00;;;;;;;;;;;;;;;23.62;49.63;100579.64;126312;1090;24406;-67
2021/06/05 10:30:40;;;;;;;10.35;1.90;;;;;;;23.63;50.00;100575.45;126207;1090;21454;-66
2021/06/05 10:33:16;;;;;;;4.57;1.63;;;;;;;23.72;49.09;100579.87;126258;1090;25686;-67
2021/06/05 10:35:47;;;;;;;4.40;1.25;;;;;;;23.75;48.30;100582.38;126208;1089;22795;-66
2021/06/05 10:38:36;;;;;;;5.40;1.50;;;;;;;23.73;48.25;100576.45;126112;1089;22778;-66
2021/06/05 10:41:09;;;;;;;5.93;1.58;;;;;;;23.77;47.87;100570.41;126455;1090;27138;-67
2021/06/05 10:43:40;;;;;;;7.63;1.40;;;;;;;23.76;48.13;100577.42;126489;1093;22789;-66
2021/06/05 10:46:28;;;;;;;4.48;1.18;;;;;;;23.82;47.98;100578.78;126380;1090;23041;-66
2021/06/05 10:49:09;;;;;;;4.88;1.30;;;;;;;23.89;47.99;100571.59;126442;1093;23403;-66
2021/06/05 10:51:48;;;;;;;4.45;1.60;;;;;;;23.99;48.45;100561.16;126363;1093;22808;-66
2021/06/05 10:54:25;;;;;;;5.40;1.40;;;;;;;24.07;48.17;100564.83;126361;1093;25739;-65
2021/06/05 10:57:07;;;;;;;4.25;1.40;;;;;;;24.13;48.17;100571.13;126167;1093;22851;-67
2021/06/05 10:59:46;;;;;;;6.10;1.65;;;;;;;24.20;48.08;100563.92;126526;1093;22807;-67
2021/06/05 11:02:40;;;;;;;5.43;1.80;;;;;;;24.24;47.75;100565.08;126524;1093;24329;-67
2021/06/05 11:05:45;;;;;;;6.50;1.78;;;;;;;24.30;47.36;100567.74;127263;1093;27323;-66
2021/06/05 11:08:38;;;;;;;6.50;1.80;;;;;;;24.36;47.84;100559.77;128041;1090;22890;-68
2021/06/05 11:11:38;;;;;;;6.35;1.93;;;;;;;24.47;47.84;100565.12;126677;1093;23212;-66
2021/06/05 11:14:43;;;;;;;6.00;1.80;;;;;;;24.49;47.90;100554.66;125902;1095;24420;-66
2021/06/05 11:17:34;;;;;;;5.43;1.67;;;;;;;24.56;47.11;100559.60;125906;1094;22773;-67
2021/06/05 11:20:39;;;;;;;4.68;1.63;;;;;;;24.56;47.01;100559.60;126155;1096;22767;-66
2021/06/05 11:23:30;;;;;;;4.43;1.48;;;;;;;24.56;46.24;100559.60;125788;1096;25797;-65
2021/06/05 11:26:38;;;;;;;5.03;1.73;;;;;;;24.56;46.39;100547.44;125946;1096;22973;-66
2021/06/05 11:29:25;;;;;;;6.63;2.03;;;;;;;24.54;46.37;100553.70;126005;1092;22852;-65
2021/06/05 11:31:56;;;;;;;5.18;1.80;;;;;;;24.51;46.41;100554.85;125768;1093;27412;-66
2021/06/05 11:34:57;;;;;;;4.75;2.03;;;;;;;24.55;46.70;100545.91;125960;1096;22777;-68
2021/06/05 11:37:52;;;;;;;6.03;1.75;;;;;;;24.59;45.96;100547.05;126017;1093;22879;-66
2021/06/05 11:40:52;;;;;;;5.33;1.80;;;;;;;24.63;46.73;100546.67;125808;1093;25733;-66
2021/06/05 11:43:38;;;;;;;7.05;2.73;;;;;;;24.76;46.90;100546.52;125902;1093;22884;-67
2021/06/05 11:46:11;;;;;;;6.33;2.43;;;;;;;24.87;46.49;100546.15;125830;1093;22786;-66
2021/06/05 11:49:00;;;;;;;8.03;2.18;;;;;;;24.91;46.40;100537.95;125902;1093;22856;-66
2021/06/05 11:51:41;;;;;;;5.93;1.70;;;;;;;24.99;45.96;100529.37;125856;1090;22770;-66